Time;durP1;ratioP1;P1;durP2;ratioP2;P2;SDS_P1;SDS_P2;PMS_P1;PMS_P2;Temp;Humidity;BMP_temperature;BMP_pressure;BME280_temperature;BME280_humidity;BME280_pressure;Samples;Min_cycle;Max_cycle;Signal;HPM_P1;HPM_P2
2023/07/26 00:00:08;;;;;;;1.15;1.05;;;20.50;63.30;;;;;;5014814;28;20138;-36
2023/07/26 00:02:35;;;;;;;1.80;1.30;;;;;;;;;;5014756;28;20054;-35
2023/07/26 00:05:02;;;;;;;1.40;1.10;;;20.60;79.90;;;;;;5014774;28;20132;-31
2023/07/26 00:07:28;;;;;;;1.25;1.10;;;20.70;79.20;;;;;;5010909;28;20554;-31
2023/07/26 00:09:56;;;;;;;2.28;1.45;;;20.40;63.20;;;;;;5011510;28;20054;-35
2023/07/26 00:12:25;;;;;;;2.60;1.30;;;;;;;;;;5011331;28;20425;-32
2023/07/26 00:14:52;;;;;;;2.30;1.35;;;21.00;79.30;;;;;;5011310;28;20111;-31
2023/07/26 00:17:19;;;;;;;1.83;1.10;;;20.30;79.00;;;;;;5011488;28;20141;-32
2023/07/26 00:19:46;;;;;;;1.70;1.20;;;;;;;;;;5011560;28;20099;-33
2023/07/26 00:22:13;;;;;;;3.35;1.17;;;20.50;79.10;;;;;;5011486;28;20133;-32
2023/07/26 00:24:40;;;;;;;3.38;1.40;;;;;;;;;;5011626;28;20049;-36
2023/07/26 00:27:08;;;;;;;2.10;1.30;;;21.40;66.50;;;;;;5011291;28;20136;-31
2023/07/26 00:29:34;;;;;;;2.63;1.38;;;20.40;79.50;;;;;;5010863;28;20050;-32
2023/07/26 00:32:02;;;;;;;1.85;1.23;;;;;;;;;;5011327;28;20135;-36
2023/07/26 00:34:28;;;;;;;1.90;1.38;;;20.20;66.80;;;;;;5011102;28;20141;-32
2023/07/26 00:36:55;;;;;;;2.80;1.40;;;19.70;79.10;;;;;;5019735;28;20045;-31
2023/07/26 00:39:22;;;;;;;2.00;1.10;;;;;;;;;;5030607;28;20552;-35
2023/07/26 00:41:49;;;;;;;3.17;1.88;;;20.60;79.20;;;;;;5030871;28;20464;-31
2023/07/26 00:44:17;;;;;;;1.60;1.30;;;20.40;63.20;;;;;;5030231;28;20057;-32
2023/07/26 00:46:43;;;;;;;1.63;1.20;;;19.80;79.30;;;;;;5015420;28;20056;-32
2023/07/26 00:49:10;;;;;;;1.88;1.15;;;;;;;;;;5011144;28;20050;-35
2023/07/26 00:51:38;;;;;;;1.70;1.38;;;;;;;;;;5010846;28;20137;-31
2023/07/26 00:54:06;;;;;;;1.50;1.20;;;21.10;79.70;;;;;;5011031;28;20120;-31
2023/07/26 00:56:33;;;;;;;3.08;1.20;;;;;;;;;;5010377;28;20137;-36
2023/07/26 00:58:59;;;;;;;3.22;1.50;;;20.00;78.90;;;;;;5011031;28;20128;-32
2023/07/26 01:01:27;;;;;;;1.42;1.10;;;20.30;63.10;;;;;;5010857;28;20153;-31
2023/07/26 01:03:55;;;;;;;1.90;1.27;;;;;;;;;;5010542;28;20073;-32
2023/07/26 01:06:23;;;;;;;1.70;1.35;;;21.10;63.70;;;;;;5010873;28;20052;-32
2023/07/26 01:08:55;;;;;;;1.48;1.20;;;20.30;63.10;;;;;;5026744;28;20124;-31
2023/07/26 01:11:24;;;;;;;1.17;1.02;;;20.10;65.00;;;;;;5030343;28;20132;-31
2023/07/26 01:13:52;;;;;;;1.48;1.23;;;20.20;79.10;;;;;;5030470;28;20556;-31
2023/07/26 01:16:19;;;;;;;1.88;1.10;;;;;;;;;;5030021;28;20049;-34
2023/07/26 01:18:47;;;;;;;3.13;1.20;;;20.50;80.10;;;;;;5029735;28;20594;-31
2023/07/26 01:21:14;;;;;;;2.15;1.20;;;20.20;79.50;;;;;;5030296;28;20132;-31
2023/07/26 01:23:42;;;;;;;1.85;1.30;;;20.50;79.20;;;;;;5029942;28;20732;-31
2023/07/26 01:26:09;;;;;;;2.03;1.30;;;20.40;80.00;;;;;;5030220;28;20128;-31
2023/07/26 01:28:36;;;;;;;2.10;1.40;;;20.10;66.70;;;;;;5029569;28;20049;-34
2023/07/26 01:31:02;;;;;;;2.28;1.30;;;20.50;79.20;;;;;;5030216;28;20153;-31
2023/07/26 01:33:29;;;;;;;1.90;1.40;;;20.10;79.00;;;;;;5030182;28;20077;-31
2023/07/26 01:35:56;;;;;;;2.38;1.23;;;;;;;;;;5029141;28;20128;-36
2023/07/26 01:38:23;;;;;;;1.75;1.30;;;19.40;78.70;;;;;;5025484;28;20129;-31
2023/07/26 01:40:51;;;;;;;1.73;1.38;;;20.30;63.20;;;;;;5030047;28;20072;-34
2023/07/26 01:43:18;;;;;;;1.88;1.30;;;;;;;;;;5029741;28;20053;-36
2023/07/26 01:45:45;;;;;;;1.80;1.20;;;19.60;79.60;;;;;;5023984;28;20140;-31
2023/07/26 01:48:11;;;;;;;1.80;1.25;;;19.20;78.70;;;;;;5010045;28;20053;-31
2023/07/26 01:50:38;;;;;;;1.70;1.25;;;20.00;65.60;;;;;;5009812;28;20137;-33
2023/07/26 01:53:05;;;;;;;1.65;1.30;;;20.40;79.30;;;;;;5010095;28;20050;-31
2023/07/26 01:55:32;;;;;;;1.90;1.40;;;20.50;79.40;;;;;;5009982;28;20084;-31
2023/07/26 01:58:00;;;;;;;2.17;1.33;;;20.20;63.20;;;;;;5009842;28;20153;-32
2023/07/26 02:00:27;;;;;;;1.42;1.10;;;19.90;74.20;;;;;;5009835;28;20050;-31
2023/07/26 02:02:53;;;;;;;1.65;1.20;;;19.70;78.90;;;;;;5009672;28;20132;-32
2023/07/26 02:05:20;;;;;;;1.70;1.40;;;19.10;78.60;;;;;;5009545;28;20046;-32
2023/07/26 02:07:47;;;;;;;2.10;1.58;;;20.50;68.20;;;;;;5010058;28;20072;-35
2023/07/26 02:10:13;;;;;;;1.60;1.23;;;20.50;79.30;;;;;;5009878;28;20137;-31
2023/07/26 02:12:40;;;;;;;2.42;1.30;;;20.40;79.30;;;;;;5009307;28;20046;-31
2023/07/26 02:15:09;;;;;;;2.42;1.52;;;20.10;64.20;;;;;;5009665;28;20129;-34
2023/07/26 02:17:36;;;;;;;1.58;1.30;;;;;;;;;;5009487;28;20050;-32
2023/07/26 02:20:04;;;;;;;2.22;1.30;;;;;;;;;;5009550;28;20153;-31
2023/07/26 02:22:31;;;;;;;1.63;1.40;;;20.10;80.00;;;;;;5016059;28;20050;-31
2023/07/26 02:24:57;;;;;;;2.25;1.48;;;21.30;68.40;;;;;;5018677;28;20067;-33
2023/07/26 02:27:24;;;;;;;2.33;1.50;;;20.50;79.40;;;;;;5017222;28;20120;-32
2023/07/26 02:29:51;;;;;;;2.45;1.50;;;19.80;79.40;;;;;;5028460;28;20416;-31
2023/07/26 02:32:19;;;;;;;2.95;1.33;;;20.20;63.20;;;;;;5023558;28;20132;-34
2023/07/26 02:34:46;;;;;;;2.28;1.40;;;;;;;;;;5020073;28;20160;-35
2023/07/26 02:37:12;;;;;;;1.60;1.38;;;20.60;68.60;;;;;;5017595;28;20051;-31
2023/07/26 02:39:39;;;;;;;1.80;1.38;;;20.40;79.30;;;;;;5019119;28;20115;-31
2023/07/26 02:42:06;;;;;;;2.20;1.30;;;20.40;70.10;;;;;;5017652;28;20137;-33
2023/07/26 02:44:33;;;;;;;2.05;1.35;;;20.30;79.30;;;;;;5017749;28;20056;-31
2023/07/26 02:46:59;;;;;;;3.05;1.50;;;21.40;79.90;;;;;;5017993;28;20125;-31
2023/07/26 02:49:27;;;;;;;3.03;1.50;;;20.20;72.50;;;;;;5019621;28;20161;-32
2023/07/26 02:51:54;;;;;;;1.60;1.30;;;20.40;71.10;;;;;;5018590;28;20133;-33
2023/07/26 02:54:21;;;;;;;1.50;1.33;;;21.00;75.60;;;;;;5017224;28;20125;-31
2023/07/26 02:56:48;;;;;;;2.17;1.42;;;;;;;;;;5017267;28;20046;-31
2023/07/26 02:59:15;;;;;;;2.70;1.40;;;20.70;78.80;;;;;;5018530;28;20049;-31
2023/07/26 03:01:41;;;;;;;1.50;1.30;;;19.90;79.50;;;;;;5019283;28;20133;-31
2023/07/26 03:04:08;;;;;;;2.05;1.35;;;20.90;79.70;;;;;;5008398;28;20541;-31
2023/07/26 03:06:36;;;;;;;1.63;1.35;;;19.60;72.80;;;;;;5008536;28;20132;-31
2023/07/26 03:09:03;;;;;;;3.13;1.50;;;;;;;;;;5008244;28;21544;-32
2023/07/26 03:11:30;;;;;;;2.38;1.50;;;21.00;66.20;;;;;;5017106;28;20132;-31
2023/07/26 03:13:57;;;;;;;2.45;1.50;;;;;;;;;;5018221;28;20052;-37
2023/07/26 03:16:24;;;;;;;1.88;1.40;;;21.10;76.00;;;;;;5014887;28;20558;-31
2023/07/26 03:18:51;;;;;;;1.30;1.20;;;;;;;;;;5018944;28;20069;-36
2023/07/26 03:21:18;;;;;;;1.33;1.10;;;18.90;78.60;;;;;;5018251;28;20464;-32
2023/07/26 03:23:46;;;;;;;2.78;1.40;;;20.10;63.20;;;;;;5017090;28;20133;-31
2023/07/26 03:26:12;;;;;;;1.70;1.38;;;19.80;79.10;;;;;;5014497;28;20410;-31
2023/07/26 03:28:39;;;;;;;1.60;1.30;;;20.10;63.20;;;;;;5018489;28;20455;-34
2023/07/26 03:31:06;;;;;;;1.50;1.10;;;20.00;79.50;;;;;;5019446;28;20421;-31
2023/07/26 03:33:33;;;;;;;1.80;1.40;;;;;;;;;;5027721;28;20442;-34
2023/07/26 03:36:00;;;;;;;1.67;1.50;;;20.10;79.60;;;;;;5013987;28;20417;-33
2023/07/26 03:38:27;;;;;;;2.95;1.40;;;19.80;79.30;;;;;;5017925;28;20129;-32
2023/07/26 03:40:55;;;;;;;2.08;1.60;;;20.30;69.60;;;;;;5017111;28;20060;-34
2023/07/26 03:43:22;;;;;;;2.00;1.30;;;;;;;;;;5010806;28;20046;-33
2023/07/26 03:45:49;;;;;;;2.22;1.23;;;19.30;79.00;;;;;;5011217;28;20046;-32
2023/07/26 03:48:16;;;;;;;2.72;1.60;;;;;;;;;;5011342;28;20506;-37
2023/07/26 03:50:42;;;;;;;2.17;1.30;;;20.90;79.70;;;;;;5011539;28;20148;-32
2023/07/26 03:53:09;;;;;;;2.10;1.38;;;20.40;79.90;;;;;;5011239;28;20130;-32
2023/07/26 03:55:36;;;;;;;1.75;1.23;;;;;;;;;;5010743;28;20494;-35
2023/07/26 03:58:04;;;;;;;2.22;1.45;;;20.20;79.50;;;;;;5011201;28;20423;-32
2023/07/26 04:00:31;;;;;;;2.20;1.35;;;19.80;79.40;;;;;;5011352;28;20133;-34
2023/07/26 04:02:58;;;;;;;1.30;1.20;;;;;;;;;;5011609;28;20077;-32
2023/07/26 04:05:25;;;;;;;1.40;1.20;;;;;;;;;;5011265;28;20052;-32
2023/07/26 04:07:52;;;;;;;1.30;1.20;;;;;;;;;;5011387;28;20561;-37
2023/07/26 04:10:19;;;;;;;2.15;1.33;;;20.10;79.80;;;;;;5011503;28;20482;-32
2023/07/26 04:12:46;;;;;;;2.00;1.50;;;20.10;75.20;;;;;;5011315;28;20124;-31
2023/07/26 04:15:14;;;;;;;2.22;1.40;;;20.00;63.30;;;;;;5011379;28;20046;-34
2023/07/26 04:17:41;;;;;;;2.00;1.30;;;;;;;;;;5011429;28;20050;-35
2023/07/26 04:20:09;;;;;;;1.38;1.27;;;20.10;63.30;;;;;;5011491;28;20129;-32
2023/07/26 04:22:36;;;;;;;1.42;1.20;;;20.30;79.90;;;;;;5010960;28;20050;-32
2023/07/26 04:25:02;;;;;;;2.22;1.50;;;20.10;79.60;;;;;;5011013;28;20483;-31
2023/07/26 04:27:29;;;;;;;2.05;1.50;;;;;;;;;;5015046;28;20529;-32
2023/07/26 04:29:56;;;;;;;2.15;1.42;;;20.50;79.80;;;;;;5031037;28;20081;-32
2023/07/26 04:32:24;;;;;;;1.60;1.30;;;20.00;63.30;;;;;;5030696;28;20734;-37
2023/07/26 04:34:51;;;;;;;1.52;1.20;;;;;;;;;;5030430;28;20128;-35
2023/07/26 04:37:18;;;;;;;1.95;1.40;;;;;;;;;;5030237;28;20052;-34
2023/07/26 04:39:47;;;;;;;2.53;1.30;;;20.00;63.30;;;;;;5030487;28;20050;-36
2023/07/26 04:42:15;;;;;;;1.85;1.20;;;;;;;;;;5030758;28;20070;-37
2023/07/26 04:44:42;;;;;;;1.70;1.40;;;20.30;79.60;;;;;;5030409;28;20132;-35
2023/07/26 04:47:09;;;;;;;2.17;1.42;;;19.70;79.40;;;;;;5030385;28;20451;-33
2023/07/26 04:49:37;;;;;;;4.25;1.40;;;21.10;68.70;;;;;;5030734;28;20084;-32
2023/07/26 04:52:04;;;;;;;1.60;1.42;;;19.60;65.90;;;;;;5030181;28;20056;-34
2023/07/26 04:54:31;;;;;;;2.33;1.73;;;20.00;74.70;;;;;;5027535;28;20045;-32
2023/07/26 04:56:58;;;;;;;1.92;1.40;;;;;;;;;;5010902;28;20092;-35
2023/07/26 04:59:25;;;;;;;2.15;1.30;;;19.90;79.60;;;;;;5010909;28;20058;-33
2023/07/26 05:01:52;;;;;;;1.73;1.45;;;;;;;;;;5010866;28;20050;-37
2023/07/26 05:04:19;;;;;;;2.30;1.60;;;20.60;80.30;;;;;;5011074;28;20133;-33
2023/07/26 05:06:47;;;;;;;2.47;1.42;;;20.80;80.10;;;;;;5030336;28;20124;-34
2023/07/26 05:09:14;;;;;;;3.08;1.40;;;20.00;80.00;;;;;;5030520;28;20045;-31
2023/07/26 05:11:41;;;;;;;2.05;1.50;;;;;;;;;;5030389;28;20081;-36
2023/07/26 05:14:07;;;;;;;1.77;1.35;;;20.00;80.00;;;;;;5030200;28;20132;-32
2023/07/26 05:16:34;;;;;;;1.73;1.42;;;20.40;80.70;;;;;;5010897;28;20053;-32
2023/07/26 05:19:01;;;;;;;3.47;1.38;;;;;;;;;;5010478;28;20102;-33
2023/07/26 05:21:28;;;;;;;2.15;1.40;;;20.20;80.20;;;;;;5010603;28;20144;-32
2023/07/26 05:23:56;;;;;;;1.50;1.25;;;19.90;63.40;;;;;;5018055;28;20140;-35
2023/07/26 05:26:23;;;;;;;1.52;1.30;;;;;;;;;;5010427;28;20129;-35
2023/07/26 05:28:49;;;;;;;1.60;1.45;;;20.10;79.70;;;;;;5010380;28;20129;-32
2023/07/26 05:31:16;;;;;;;1.75;1.25;;;19.80;79.90;;;;;;5010181;28;20133;-32
2023/07/26 05:33:43;;;;;;;1.83;1.42;;;;;;;;;;5019035;28;20056;-35
2023/07/26 05:36:10;;;;;;;2.05;1.30;;;21.00;80.20;;;;;;5029506;28;20128;-32
2023/07/26 05:38:37;;;;;;;1.48;1.35;;;19.70;79.50;;;;;;5029913;28;20061;-31
2023/07/26 05:41:05;;;;;;;1.30;1.20;;;20.40;71.30;;;;;;5029968;28;20133;-32
2023/07/26 05:43:32;;;;;;;2.45;1.50;;;19.10;74.80;;;;;;5028758;28;20128;-32
2023/07/26 05:45:59;;;;;;;1.90;1.30;;;19.60;67.20;;;;;;5029501;28;20053;-32
2023/07/26 05:48:26;;;;;;;2.67;1.30;;;19.70;68.40;;;;;;5029506;28;20132;-34
2023/07/26 05:50:52;;;;;;;1.60;1.30;;;20.10;72.10;;;;;;5029863;28;20137;-32
2023/07/26 05:53:19;;;;;;;1.63;1.30;;;;;;;;;;5023818;28;20121;-36
2023/07/26 05:55:46;;;;;;;2.25;1.52;;;19.50;79.30;;;;;;5010113;28;20239;-33
2023/07/26 05:58:14;;;;;;;1.30;1.10;;;20.00;80.50;;;;;;5009825;28;20042;-33
2023/07/26 06:00:41;;;;;;;1.40;1.23;;;19.70;79.60;;;;;;5009911;28;20046;-33
2023/07/26 06:03:08;;;;;;;1.27;1.17;;;;;;;;;;5013279;28;20052;-36
2023/07/26 06:05:35;;;;;;;2.03;1.30;;;19.90;80.00;;;;;;5028764;28;20132;-32
2023/07/26 06:08:02;;;;;;;1.80;1.35;;;19.60;79.50;;;;;;5029339;28;20049;-32
2023/07/26 06:10:29;;;;;;;1.55;1.25;;;20.90;80.50;;;;;;5029553;28;20053;-31
2023/07/26 06:12:56;;;;;;;1.52;1.40;;;19.70;79.50;;;;;;5011864;28;20445;-32
2023/07/26 06:15:24;;;;;;;1.40;1.20;;;19.90;63.40;;;;;;5009405;28;20138;-33
2023/07/26 06:17:50;;;;;;;1.40;1.30;;;21.00;74.00;;;;;;5009717;28;20094;-32
2023/07/26 06:20:17;;;;;;;1.63;1.10;;;19.90;80.40;;;;;;5015880;28;20454;-33
2023/07/26 06:22:44;;;;;;;1.30;1.20;;;20.10;79.70;;;;;;5028396;28;20445;-32
2023/07/26 06:25:11;;;;;;;1.77;1.25;;;19.80;73.60;;;;;;5029109;28;20137;-32
2023/07/26 06:27:38;;;;;;;1.45;1.23;;;;;;;;;;5029062;28;20077;-32
2023/07/26 06:30:06;;;;;;;1.77;1.30;;;19.20;69.10;;;;;;5029341;28;20136;-32
2023/07/26 06:32:34;;;;;;;1.70;1.08;;;20.70;67.30;;;;;;5015447;28;20137;-32
2023/07/26 06:35:01;;;;;;;1.55;1.20;;;;;;;;;;5009331;28;20056;-34
2023/07/26 06:37:28;;;;;;;1.42;1.10;;;19.80;69.60;;;;;;5022240;28;20042;-32
2023/07/26 06:39:55;;;;;;;2.15;1.40;;;;;;;;;;5029023;28;20133;-36
2023/07/26 06:42:22;;;;;;;2.00;1.20;;;18.70;78.90;;;;;;5028066;28;20128;-32
2023/07/26 06:44:49;;;;;;;1.30;1.15;;;19.50;79.40;;;;;;5029008;28;20053;-32
2023/07/26 06:47:15;;;;;;;1.70;1.30;;;19.60;72.20;;;;;;5028902;28;20128;-33
2023/07/26 06:49:43;;;;;;;1.83;1.13;;;20.60;80.00;;;;;;5028836;28;20562;-33
2023/07/26 06:52:11;;;;;;;1.85;1.10;;;;;;;;;;5027030;28;20124;-41
2023/07/26 06:54:37;;;;;;;1.20;1.10;;;20.00;67.80;;;;;;5028645;28;20417;-32
2023/07/26 06:57:05;;;;;;;1.63;1.30;;;19.70;79.40;;;;;;5028782;28;20129;-34
2023/07/26 06:59:32;;;;;;;2.00;1.40;;;;;;;;;;5028926;28;20148;-35
2023/07/26 07:01:59;;;;;;;1.83;1.30;;;19.70;79.40;;;;;;5020420;28;20133;-33
2023/07/26 07:04:26;;;;;;;2.95;1.30;;;20.50;79.80;;;;;;5009071;28;20142;-33
2023/07/26 07:06:54;;;;;;;2.15;1.17;;;19.80;79.20;;;;;;5011187;28;20046;-34
2023/07/26 07:09:21;;;;;;;2.63;1.20;;;20.10;79.20;;;;;;5019319;28;20057;-31
2023/07/26 07:11:47;;;;;;;1.83;1.10;;;20.10;79.40;;;;;;5016215;28;20132;-32
2023/07/26 07:14:14;;;;;;;2.35;1.20;;;20.70;68.10;;;;;;5017278;28;20046;-39
2023/07/26 07:16:41;;;;;;;2.38;1.20;;;21.10;70.20;;;;;;5021660;28;20053;-37
2023/07/26 07:19:07;;;;;;;1.58;0.95;;;20.00;78.60;;;;;;5022174;28;20458;-40
2023/07/26 07:21:34;;;;;;;2.55;1.00;;;;;;;;;;5021633;28;20077;-34
2023/07/26 07:24:04;;;;;;;1.30;1.10;;;20.90;65.90;;;;;;5020803;28;20141;-37
2023/07/26 07:26:31;;;;;;;1.38;1.17;;;20.80;72.10;;;;;;5020590;28;20056;-38
2023/07/26 07:28:57;;;;;;;1.60;1.10;;;21.50;79.00;;;;;;5017250;28;20122;-40
2023/07/26 07:31:24;;;;;;;1.33;1.20;;;;;;;;;;5023430;28;20049;-36
2023/07/26 07:33:51;;;;;;;1.40;1.10;;;;;;;;;;5012779;28;20081;-36
2023/07/26 07:36:19;;;;;;;2.10;0.85;;;20.90;78.00;;;;;;5014765;28;20569;-38
2023/07/26 07:38:45;;;;;;;1.10;1.00;;;21.70;78.30;;;;;;5021168;28;20046;-40
2023/07/26 07:41:14;;;;;;;1.30;1.20;;;22.30;78.60;;;;;;5021198;28;20145;-39
2023/07/26 07:43:40;;;;;;;1.58;1.17;;;21.90;79.10;;;;;;5025958;28;20084;-40
2023/07/26 07:46:07;;;;;;;1.98;1.00;;;21.00;69.80;;;;;;5026108;28;20550;-37
2023/07/26 07:48:34;;;;;;;1.30;1.20;;;21.30;77.80;;;;;;5020072;28;20044;-39
2023/07/26 07:51:01;;;;;;;1.98;1.10;;;;;;;;;;5014672;28;20049;-35
2023/07/26 07:53:28;;;;;;;1.25;1.10;;;21.30;77.80;;;;;;5011942;28;20050;-39
2023/07/26 07:55:55;;;;;;;1.33;1.00;;;;;;;;;;5016100;28;20536;-36
2023/07/26 07:58:25;;;;;;;2.63;1.00;;;21.80;78.70;;;;;;5019797;28;20443;-38
2023/07/26 08:00:56;;;;;;;1.40;1.00;;;22.00;70.60;;;;;;5020318;28;20471;-38
2023/07/26 08:03:23;;;;;;;2.67;1.05;;;20.50;77.20;;;;;;5010795;28;20129;-40
2023/07/26 08:05:50;;;;;;;1.55;1.30;;;;;;;;;;5011125;28;20057;-35
2023/07/26 08:08:16;;;;;;;2.88;1.30;;;21.50;77.60;;;;;;5011188;28;20046;-39
2023/07/26 08:10:44;;;;;;;1.30;1.00;;;21.20;77.50;;;;;;5011457;28;20104;-39
2023/07/26 08:13:11;;;;;;;1.98;1.10;;;20.70;78.10;;;;;;5017532;28;20053;-40
2023/07/26 08:15:39;;;;;;;2.58;1.10;;;21.40;61.80;;;;;;5020108;28;20137;-37
2023/07/26 08:18:07;;;;;;;1.70;1.13;;;;;;;;;;5019408;28;20332;-37
2023/07/26 08:20:33;;;;;;;1.10;1.00;;;21.80;77.80;;;;;;5022993;28;20093;-40
2023/07/26 08:23:00;;;;;;;1.50;1.20;;;;;;;;;;5010845;28;20056;-37
2023/07/26 08:25:27;;;;;;;3.53;1.10;;;20.60;77.10;;;;;;5010862;28;20230;-38
2023/07/26 08:27:54;;;;;;;1.73;1.20;;;;;;;;;;5009171;28;20557;-36
2023/07/26 08:30:21;;;;;;;1.30;1.05;;;21.50;78.00;;;;;;5010584;28;20509;-38
2023/07/26 08:32:49;;;;;;;2.28;1.30;;;20.80;78.10;;;;;;5010936;28;20077;-39
2023/07/26 08:35:16;;;;;;;2.17;1.20;;;21.20;77.50;;;;;;5010864;28;20111;-40
2023/07/26 08:37:43;;;;;;;1.75;1.20;;;21.80;74.40;;;;;;5017120;28;20533;-40
2023/07/26 08:40:10;;;;;;;1.80;0.98;;;20.90;78.10;;;;;;5018807;28;20132;-40
2023/07/26 08:42:37;;;;;;;1.55;1.10;;;;;;;;;;5021359;28;20073;-40
2023/07/26 08:45:05;;;;;;;1.88;1.10;;;21.30;78.40;;;;;;5020319;28;20129;-39
2023/07/26 08:47:32;;;;;;;1.55;1.08;;;21.70;78.50;;;;;;5016868;28;20060;-40
2023/07/26 08:50:00;;;;;;;2.88;1.30;;;21.50;77.80;;;;;;5021590;28;20459;-40
2023/07/26 08:52:26;;;;;;;1.10;1.00;;;21.20;77.30;;;;;;5021668;28;20128;-40
2023/07/26 08:54:53;;;;;;;2.30;1.10;;;;;;;;;;5021099;28;20120;-37
2023/07/26 08:57:21;;;;;;;2.08;1.40;;;21.40;77.80;;;;;;5018747;28;20184;-38
2023/07/26 08:59:48;;;;;;;1.60;1.30;;;21.70;72.80;;;;;;5020213;28;20049;-39
2023/07/26 09:02:15;;;;;;;1.40;1.10;;;21.50;75.60;;;;;;5021197;28;20133;-38
2023/07/26 09:04:41;;;;;;;1.00;0.90;;;21.00;66.50;;;;;;5019848;28;20050;-37
2023/07/26 09:07:09;;;;;;;1.83;1.30;;;21.70;77.50;;;;;;5018644;28;20051;-39
2023/07/26 09:09:37;;;;;;;2.45;1.20;;;20.70;77.00;;;;;;5023668;28;20056;-39
2023/07/26 09:12:04;;;;;;;1.92;1.20;;;21.30;61.80;;;;;;5019752;28;20125;-33
2023/07/26 09:14:31;;;;;;;1.52;1.25;;;22.50;67.50;;;;;;5019269;28;20049;-39
2023/07/26 09:16:58;;;;;;;1.15;1.00;;;20.90;77.80;;;;;;5019817;28;20053;-38
2023/07/26 09:19:29;;;;;;;2.35;1.27;;;21.70;77.50;;;;;;5020047;28;20046;-40
2023/07/26 09:21:57;;;;;;;1.50;1.27;;;21.50;61.70;;;;;;5019049;28;20042;-37
2023/07/26 09:24:33;;;;;;;1.42;1.00;;;21.50;61.60;;;;;;5020277;28;20057;-37
2023/07/26 09:27:03;;;;;;;2.63;1.30;;;21.30;77.60;;;;;;5016204;28;20521;-39
2023/07/26 09:29:30;;;;;;;1.45;1.00;;;;;;;;;;5018326;28;20132;-40
2023/07/26 09:31:57;;;;;;;1.33;1.13;;;22.40;77.20;;;;;;5020843;28;20120;-40
2023/07/26 09:34:24;;;;;;;1.95;1.10;;;22.00;77.10;;;;;;5018154;28;20124;-40
2023/07/26 09:36:51;;;;;;;1.38;1.00;;;22.60;61.80;;;;;;5023717;28;20124;-37
2023/07/26 09:39:18;;;;;;;1.27;1.00;;;22.70;77.20;;;;;;5015706;28;20132;-38
2023/07/26 09:41:46;;;;;;;1.30;1.10;;;22.60;74.80;;;;;;5010130;28;20124;-38
2023/07/26 09:44:15;;;;;;;2.53;1.20;;;22.20;74.30;;;;;;5010176;28;20452;-38
2023/07/26 09:46:49;;;;;;;2.67;1.00;;;21.60;76.90;;;;;;5010552;28;20061;-39
2023/07/26 09:49:16;;;;;;;1.50;1.05;;;;;;;;;;5009981;28;20132;-37
2023/07/26 09:51:43;;;;;;;1.63;1.10;;;21.80;70.30;;;;;;5010256;28;20050;-39
2023/07/26 09:54:10;;;;;;;2.17;1.20;;;;;;;;;;5009997;28;20132;-39
2023/07/26 09:56:38;;;;;;;1.33;1.00;;;;;;;;;;5010160;28;20050;-38
2023/07/26 09:59:06;;;;;;;1.13;1.00;;;21.80;76.60;;;;;;5011973;28;20049;-40
2023/07/26 10:01:33;;;;;;;1.10;1.00;;;22.20;76.60;;;;;;5019867;28;20076;-40
2023/07/26 10:04:00;;;;;;;1.30;1.00;;;21.80;61.20;;;;;;5019314;28;20061;-38
2023/07/26 10:06:29;;;;;;;1.58;1.20;;;21.80;61.10;;;;;;5020001;28;20132;-37
2023/07/26 10:08:56;;;;;;;1.50;1.10;;;21.90;66.30;;;;;;5019290;28;20083;-40
2023/07/26 10:11:22;;;;;;;1.27;1.10;;;22.10;76.60;;;;;;5018209;28;20057;-40
2023/07/26 10:13:49;;;;;;;3.67;1.23;;;;;;;;;;5019603;28;20056;-39
2023/07/26 10:16:17;;;;;;;1.88;1.17;;;22.00;77.50;;;;;;5019439;28;20045;-38
2023/07/26 10:18:44;;;;;;;1.45;1.10;;;21.90;76.60;;;;;;5018212;28;20139;-40
2023/07/26 10:21:11;;;;;;;1.63;1.23;;;21.70;76.70;;;;;;5019264;28;20516;-39
2023/07/26 10:23:38;;;;;;;2.08;1.45;;;;;;;;;;5018084;28;20143;-34
2023/07/26 10:26:05;;;;;;;2.90;1.13;;;22.50;76.90;;;;;;5014197;28;20046;-38
2023/07/26 10:28:33;;;;;;;1.83;1.20;;;22.20;76.80;;;;;;5019325;28;20480;-40
2023/07/26 10:31:01;;;;;;;1.67;1.13;;;21.80;61.10;;;;;;5015551;28;20056;-37
2023/07/26 10:33:29;;;;;;;1.25;1.13;;;22.10;76.70;;;;;;5008616;28;20088;-40
2023/07/26 10:35:56;;;;;;;1.35;1.10;;;21.60;76.60;;;;;;5009541;28;20128;-39
2023/07/26 10:38:22;;;;;;;1.35;1.15;;;22.20;66.80;;;;;;5018370;28;20048;-38
2023/07/26 10:40:49;;;;;;;1.60;1.30;;;21.80;76.40;;;;;;5020221;28;20128;-39
2023/07/26 10:43:17;;;;;;;1.75;1.20;;;22.30;72.70;;;;;;5028992;28;20144;-40
2023/07/26 10:45:45;;;;;;;1.20;1.10;;;;;;;;;;5029227;28;20060;-35
2023/07/26 10:48:15;;;;;;;2.17;1.10;;;21.70;77.20;;;;;;5028878;28;20046;-40
2023/07/26 10:50:43;;;;;;;2.22;1.10;;;21.00;75.80;;;;;;5027884;28;20128;-40
2023/07/26 10:53:30;;;;;;;1.17;1.08;;;21.20;76.10;;;;;;5019647;28;20530;-40
2023/07/26 10:56:09;;;;;;;3.58;1.20;;;21.30;77.00;;;;;;5018325;28;20075;-39
2023/07/26 10:58:35;;;;;;;2.38;1.23;;;22.70;66.60;;;;;;5008325;28;20111;-39
2023/07/26 11:01:03;;;;;;;2.80;1.25;;;21.50;76.30;;;;;;5010900;28;20046;-40
2023/07/26 11:03:30;;;;;;;2.75;1.33;;;;;;;;;;5016346;28;20423;-36
2023/07/26 11:05:58;;;;;;;2.97;1.27;;;21.50;76.60;;;;;;5025839;28;20128;-40
2023/07/26 11:08:43;;;;;;;1.48;1.20;;;21.70;61.10;;;;;;5028881;28;20068;-38
2023/07/26 11:11:11;;;;;;;1.75;1.30;;;;;;;;;;5028788;28;20060;-40
2023/07/26 11:13:38;;;;;;;1.33;1.10;;;;;;;;;;5020142;28;20057;-36
2023/07/26 11:16:05;;;;;;;2.13;1.30;;;22.70;77.10;;;;;;5012376;28;20052;-39
2023/07/26 11:18:31;;;;;;;1.50;1.38;;;21.50;63.00;;;;;;5023916;28;20046;-37
2023/07/26 11:21:00;;;;;;;1.85;1.33;;;20.80;76.20;;;;;;5025229;28;20052;-40
2023/07/26 11:23:27;;;;;;;1.42;1.17;;;21.70;61.20;;;;;;5008764;28;20058;-39
2023/07/26 11:25:54;;;;;;;1.40;1.20;;;21.70;61.20;;;;;;5008808;28;20050;-37
2023/07/26 11:28:21;;;;;;;2.17;1.30;;;21.60;76.70;;;;;;5019278;28;20044;-40
2023/07/26 11:30:49;;;;;;;1.70;1.50;;;22.40;70.40;;;;;;5027984;28;20128;-40
2023/07/26 11:33:26;;;;;;;3.53;1.40;;;21.60;76.40;;;;;;5028537;28;20076;-41
2023/07/26 11:35:53;;;;;;;2.13;1.20;;;22.30;77.10;;;;;;5027943;28;20132;-39
2023/07/26 11:38:21;;;;;;;1.50;1.20;;;21.40;76.60;;;;;;5020094;28;20124;-40
2023/07/26 11:40:50;;;;;;;1.65;1.30;;;21.40;70.50;;;;;;5018252;28;20124;-40
2023/07/26 11:43:16;;;;;;;1.80;1.30;;;21.80;64.30;;;;;;5022642;28;20155;-39
2023/07/26 11:45:43;;;;;;;1.52;1.20;;;21.20;77.00;;;;;;5026778;28;20046;-39
2023/07/26 11:48:10;;;;;;;2.05;1.13;;;21.40;76.70;;;;;;5013778;28;20042;-40
2023/07/26 11:50:37;;;;;;;1.67;1.27;;;;;;;;;;5008415;28;20133;-36
2023/07/26 11:53:04;;;;;;;1.50;1.40;;;22.10;76.70;;;;;;5008620;28;20133;-39
2023/07/26 11:55:32;;;;;;;1.42;1.20;;;21.30;70.60;;;;;;5021240;28;20060;-38
2023/07/26 11:58:03;;;;;;;1.65;1.20;;;22.20;76.90;;;;;;5028101;28;20068;-39
2023/07/26 12:00:31;;;;;;;1.80;1.23;;;21.20;76.80;;;;;;5028061;28;20053;-40
2023/07/26 12:02:57;;;;;;;1.70;1.13;;;21.40;76.50;;;;;;5024873;28;20057;-40
2023/07/26 12:05:25;;;;;;;2.55;1.27;;;21.20;77.20;;;;;;5031439;28;20132;-41
2023/07/26 12:07:53;;;;;;;1.20;1.10;;;21.30;76.40;;;;;;5031693;28;20137;-38
2023/07/26 12:10:28;;;;;;;1.83;1.30;;;21.40;76.50;;;;;;5031402;28;20049;-40
2023/07/26 12:12:56;;;;;;;1.38;1.10;;;22.80;77.30;;;;;;5031284;28;20130;-39
2023/07/26 12:15:23;;;;;;;2.60;1.27;;;21.50;77.00;;;;;;5031384;28;20437;-40
2023/07/26 12:17:57;;;;;;;3.08;1.45;;;20.60;61.00;;;;;;5028165;28;20053;-39
2023/07/26 12:20:24;;;;;;;1.42;1.20;;;21.40;64.80;;;;;;5011035;28;20042;-39
2023/07/26 12:22:54;;;;;;;1.95;1.20;;;22.00;77.30;;;;;;5011380;28;20107;-40
2023/07/26 12:25:21;;;;;;;1.77;1.20;;;21.30;77.80;;;;;;5011703;28;20082;-39
2023/07/26 12:27:49;;;;;;;1.23;1.00;;;21.50;76.60;;;;;;5011363;28;20053;-34
2023/07/26 12:30:19;;;;;;;1.70;1.25;;;21.30;61.50;;;;;;5011482;28;20049;-35
2023/07/26 12:32:46;;;;;;;1.27;1.15;;;;;;;;;;5011398;28;20046;-35
2023/07/26 12:35:21;;;;;;;1.40;1.10;;;21.10;77.10;;;;;;5011026;28;20045;-31
2023/07/26 12:37:49;;;;;;;;;;;21.30;61.60;;;;;;5027444;28;20053;-31
2023/07/26 12:40:17;;;;;;;1.90;1.33;;;21.40;62.70;;;;;;5030255;28;19982;-33
2023/07/26 12:42:44;;;;;;;1.88;1.20;;;21.30;78.30;;;;;;5030595;28;20132;-32
2023/07/26 12:45:12;;;;;;;1.65;1.08;;;21.10;70.70;;;;;;5031039;28;20128;-33
2023/07/26 12:47:40;;;;;;;1.65;1.20;;;21.50;74.70;;;;;;5031004;28;20049;-31
2023/07/26 12:50:08;;;;;;;2.05;1.30;;;20.90;77.50;;;;;;5031096;28;20068;-31
2023/07/26 12:52:37;;;;;;;3.05;1.40;;;;;;;;;;5028963;28;20049;-36
2023/07/26 12:55:05;;;;;;;1.40;1.10;;;20.90;78.00;;;;;;5030838;28;20098;-31
2023/07/26 12:57:32;;;;;;;1.83;1.27;;;;;;;;;;5030314;28;20045;-31
2023/07/26 12:59:59;;;;;;;1.70;1.10;;;21.00;77.60;;;;;;5030998;28;20050;-32
2023/07/26 13:02:27;;;;;;;1.33;1.20;;;20.00;76.70;;;;;;5030483;28;20507;-31
2023/07/26 13:04:55;;;;;;;1.80;1.30;;;21.10;77.70;;;;;;5030550;28;20064;-30
2023/07/26 13:07:22;;;;;;;3.05;1.30;;;;;;;;;;5023674;28;20125;-32
2023/07/26 13:09:49;;;;;;;1.70;1.15;;;;;;;;;;5010491;28;20495;-35